sensor_id;sensor_type;location;lat;lon;timestamp;pressure;altitude;pressure_sealevel;temperature;humidity
35878;BME280;21982;49.804;24.072;2023-02-20T00:01:15;97239.59;;;1.24;69.17
35878;BME280;21982;49.804;24.072;2023-02-20T00:03:41;97193.22;;;0.87;69.47
35878;BME280;21982;49.804;24.072;2023-02-20T00:06:06;97285.09;;;1.41;69.83
35878;BME280;21982;49.804;24.072;2023-02-20T00:08:34;97254.25;;;1.15;69.63
35878;BME280;21982;49.804;24.072;2023-02-20T00:11:02;97177.22;;;0.71;69.30
35878;BME280;21982;49.804;24.072;2023-02-20T00:13:28;97174.91;;;0.68;68.93
35878;BME280;21982;49.804;24.072;2023-02-20T00:15:53;97238.91;;;0.91;69.68
35878;BME280;21982;49.804;24.072;2023-02-20T00:18:19;97277.38;;;1.29;69.84
35878;BME280;21982;49.804;24.072;2023-02-20T00:20:44;97279.56;;;1.24;69.97
35878;BME280;21982;49.804;24.072;2023-02-20T00:23:11;97284.91;;;1.23;69.04
35878;BME280;21982;49.804;24.072;2023-02-20T00:25:37;97206.06;;;0.79;69.65
35878;BME280;21982;49.804;24.072;2023-02-20T00:28:03;97275.50;;;1.11;69.55
35878;BME280;21982;49.804;24.072;2023-02-20T00:30:28;97286.25;;;1.17;69.51
35878;BME280;21982;49.804;24.072;2023-02-20T00:32:55;97283.78;;;1.16;69.33
35878;BME280;21982;49.804;24.072;2023-02-20T00:35:23;97189.72;;;0.47;69.58
35878;BME280;21982;49.804;24.072;2023-02-20T00:37:50;97208.44;;;0.61;69.27
35878;BME280;21982;49.804;24.072;2023-02-20T00:40:33;97154.56;;;0.41;69.16
35878;BME280;21982;49.804;24.072;2023-02-20T00:43:01;97155.88;;;0.26;69.36
35878;BME280;21982;49.804;24.072;2023-02-20T00:45:29;97208.19;;;0.64;69.45
35878;BME280;21982;49.804;24.072;2023-02-20T00:47:58;97164.28;;;0.39;69.26
35878;BME280;21982;49.804;24.072;2023-02-20T00:50:24;97255.53;;;0.90;69.34
35878;BME280;21982;49.804;24.072;2023-02-20T00:52:49;97283.00;;;1.04;69.50
35878;BME280;21982;49.804;24.072;2023-02-20T00:55:14;97211.44;;;0.57;69.53
35878;BME280;21982;49.804;24.072;2023-02-20T00:57:40;97183.66;;;0.46;69.65
35878;BME280;21982;49.804;24.072;2023-02-20T01:00:08;97233.41;;;0.85;69.41
35878;BME280;21982;49.804;24.072;2023-02-20T01:02:34;97220.69;;;0.71;69.37
35878;BME280;21982;49.804;24.072;2023-02-20T01:05:00;97255.31;;;0.82;69.46
35878;BME280;21982;49.804;24.072;2023-02-20T01:07:26;97288.06;;;0.96;69.78
35878;BME280;21982;49.804;24.072;2023-02-20T01:09:51;97144.09;;;0.11;69.30
35878;BME280;21982;49.804;24.072;2023-02-20T01:12:16;97213.16;;;0.47;69.37
35878;BME280;21982;49.804;24.072;2023-02-20T01:14:42;97179.69;;;0.21;69.72
35878;BME280;21982;49.804;24.072;2023-02-20T01:17:07;97299.25;;;0.87;69.81
35878;BME280;21982;49.804;24.072;2023-02-20T01:19:33;97125.44;;;-0.15;69.06
35878;BME280;21982;49.804;24.072;2023-02-20T01:21:58;97204.66;;;0.24;69.41
35878;BME280;21982;49.804;24.072;2023-02-20T01:24:24;97228.56;;;0.39;69.43
35878;BME280;21982;49.804;24.072;2023-02-20T01:26:49;97292.66;;;0.83;69.48
35878;BME280;21982;49.804;24.072;2023-02-20T01:29:16;97300.78;;;0.89;69.13
35878;BME280;21982;49.804;24.072;2023-02-20T01:31:49;97305.19;;;0.89;69.20
35878;BME280;21982;49.804;24.072;2023-02-20T01:34:16;97264.25;;;0.59;69.51
35878;BME280;21982;49.804;24.072;2023-02-20T01:36:49;97301.88;;;0.87;69.11
35878;BME280;21982;49.804;24.072;2023-02-20T01:39:19;97282.56;;;0.69;69.44
35878;BME280;21982;49.804;24.072;2023-02-20T01:41:47;97314.44;;;0.82;68.95
35878;BME280;21982;49.804;24.072;2023-02-20T01:44:19;97115.66;;;-0.44;68.80
35878;BME280;21982;49.804;24.072;2023-02-20T01:46:51;97219.78;;;0.30;68.89
35878;BME280;21982;49.804;24.072;2023-02-20T01:49:42;97309.50;;;0.79;69.04
35878;BME280;21982;49.804;24.072;2023-02-20T01:52:41;97251.91;;;0.40;68.75
35878;BME280;21982;49.804;24.072;2023-02-20T01:55:15;97295.38;;;0.60;68.90
35878;BME280;21982;49.804;24.072;2023-02-20T01:57:47;97255.91;;;0.44;68.87
35878;BME280;21982;49.804;24.072;2023-02-20T02:00:17;97287.00;;;0.57;69.45
35878;BME280;21982;49.804;24.072;2023-02-20T02:02:51;97245.03;;;0.39;69.32
35878;BME280;21982;49.804;24.072;2023-02-20T02:05:18;97243.34;;;0.28;69.38
35878;BME280;21982;49.804;24.072;2023-02-20T02:07:45;97292.41;;;0.65;68.98
35878;BME280;21982;49.804;24.072;2023-02-20T02:10:13;97286.63;;;0.61;69.10
35878;BME280;21982;49.804;24.072;2023-02-20T02:12:42;97281.22;;;0.53;69.27
35878;BME280;21982;49.804;24.072;2023-02-20T02:15:18;97293.22;;;0.65;68.94
35878;BME280;21982;49.804;24.072;2023-02-20T02:45:31;97241.69;;;0.48;69.96
35878;BME280;21982;49.804;24.072;2023-02-20T02:50:34;97177.88;;;0.01;70.18
35878;BME280;21982;49.804;24.072;2023-02-20T02:53:02;97235.06;;;0.44;69.67
35878;BME280;21982;49.804;24.072;2023-02-20T02:55:30;97278.22;;;0.79;69.67
35878;BME280;21982;49.804;24.072;2023-02-20T02:57:58;97146.38;;;0.04;69.52
35878;BME280;21982;49.804;24.072;2023-02-20T03:00:37;97200.34;;;0.34;69.81
35878;BME280;21982;49.804;24.072;2023-02-20T03:03:12;97284.91;;;0.92;69.87
35878;BME280;21982;49.804;24.072;2023-02-20T03:05:47;97307.03;;;0.98;69.65
35878;BME280;21982;49.804;24.072;2023-02-20T03:08:26;97198.28;;;0.38;69.22
35878;BME280;21982;49.804;24.072;2023-02-20T03:11:03;97302.09;;;1.05;69.22
35878;BME280;21982;49.804;24.072;2023-02-20T03:13:34;97294.00;;;1.08;69.47
35878;BME280;21982;49.804;24.072;2023-02-20T03:16:26;97286.44;;;1.05;69.27
35878;BME280;21982;49.804;24.072;2023-02-20T03:18:57;97209.34;;;0.51;68.65
35878;BME280;21982;49.804;24.072;2023-02-20T03:21:26;97236.16;;;0.62;69.20
35878;BME280;21982;49.804;24.072;2023-02-20T03:23:57;97276.25;;;0.92;68.90
35878;BME280;21982;49.804;24.072;2023-02-20T03:26:34;97290.16;;;1.02;69.25
35878;BME280;21982;49.804;24.072;2023-02-20T03:29:10;97238.53;;;0.75;69.07
35878;BME280;21982;49.804;24.072;2023-02-20T03:31:44;97285.38;;;1.07;68.83
35878;BME280;21982;49.804;24.072;2023-02-20T03:34:18;97192.63;;;0.53;68.60
35878;BME280;21982;49.804;24.072;2023-02-20T03:37:14;97224.53;;;0.66;69.11
35878;BME280;21982;49.804;24.072;2023-02-20T03:40:02;97244.06;;;0.82;69.17
35878;BME280;21982;49.804;24.072;2023-02-20T03:42:50;97261.69;;;0.89;68.64
35878;BME280;21982;49.804;24.072;2023-02-20T03:45:38;97247.88;;;0.78;68.57
35878;BME280;21982;49.804;24.072;2023-02-20T03:48:10;97203.50;;;0.58;68.80
35878;BME280;21982;49.804;24.072;2023-02-20T03:50:36;97155.63;;;0.29;68.56
35878;BME280;21982;49.804;24.072;2023-02-20T03:53:20;97293.44;;;1.04;69.01
35878;BME280;21982;49.804;24.072;2023-02-20T03:55:47;97153.00;;;0.29;68.86
35878;BME280;21982;49.804;24.072;2023-02-20T03:58:17;97230.66;;;0.86;68.72
35878;BME280;21982;49.804;24.072;2023-02-20T04:00:50;97282.38;;;1.12;68.79
35878;BME280;21982;49.804;24.072;2023-02-20T04:03:20;97271.94;;;1.12;68.25
35878;BME280;21982;49.804;24.072;2023-02-20T04:05:48;97118.53;;;0.16;68.61
35878;BME280;21982;49.804;24.072;2023-02-20T04:08:20;97283.91;;;1.14;68.16
35878;BME280;21982;49.804;24.072;2023-02-20T04:10:53;97231.09;;;0.91;68.80
35878;BME280;21982;49.804;24.072;2023-02-20T04:13:21;97278.34;;;0.98;68.51
35878;BME280;21982;49.804;24.072;2023-02-20T04:15:48;97267.34;;;0.94;68.21
35878;BME280;21982;49.804;24.072;2023-02-20T04:18:16;97278.25;;;1.09;68.30
35878;BME280;21982;49.804;24.072;2023-02-20T04:20:46;97199.09;;;0.59;68.00
35878;BME280;21982;49.804;24.072;2023-02-20T04:23:15;97185.63;;;0.54;68.18
35878;BME280;21982;49.804;24.072;2023-02-20T04:25:47;97150.69;;;0.36;68.11
35878;BME280;21982;49.804;24.072;2023-02-20T04:28:14;97224.50;;;0.87;68.50
35878;BME280;21982;49.804;24.072;2023-02-20T04:30:40;97233.06;;;0.78;68.09
35878;BME280;21982;49.804;24.072;2023-02-20T04:33:08;97088.69;;;-0.01;68.33
35878;BME280;21982;49.804;24.072;2023-02-20T04:35:34;97254.88;;;0.98;68.13
35878;BME280;21982;49.804;24.072;2023-02-20T04:37:59;97191.75;;;0.64;68.14
35878;BME280;21982;49.804;24.072;2023-02-20T04:40:26;97231.31;;;0.79;68.25
35878;BME280;21982;49.804;24.072;2023-02-20T04:42:51;97268.19;;;1.05;68.60
35878;BME280;21982;49.804;24.072;2023-02-20T04:45:16;97255.03;;;1.06;68.58
35878;BME280;21982;49.804;24.072;2023-02-20T04:47:43;97257.75;;;1.05;68.45
35878;BME280;21982;49.804;24.072;2023-02-20T04:50:13;97228.56;;;0.80;67.98
35878;BME280;21982;49.804;24.072;2023-02-20T04:52:40;97217.88;;;0.83;68.14
35878;BME280;21982;49.804;24.072;2023-02-20T04:57:41;97263.28;;;1.11;68.01
35878;BME280;21982;49.804;24.072;2023-02-20T05:00:07;97255.59;;;1.10;68.21
35878;BME280;21982;49.804;24.072;2023-02-20T05:02:36;97263.28;;;1.11;67.96
35878;BME280;21982;49.804;24.072;2023-02-20T05:05:03;97207.66;;;0.71;67.89
35878;BME280;21982;49.804;24.072;2023-02-20T05:07:29;97260.53;;;1.03;68.48
35878;BME280;21982;49.804;24.072;2023-02-20T05:09:54;97260.53;;;1.03;67.73
35878;BME280;21982;49.804;24.072;2023-02-20T05:12:19;97249.28;;;1.03;68.12
35878;BME280;21982;49.804;24.072;2023-02-20T05:14:45;97257.63;;;1.06;68.36
35878;BME280;21982;49.804;24.072;2023-02-20T05:17:12;97270.66;;;1.06;67.80
35878;BME280;21982;49.804;24.072;2023-02-20T05:19:38;97253.66;;;1.02;68.23
35878;BME280;21982;49.804;24.072;2023-02-20T05:22:11;97255.47;;;1.11;68.22
35878;BME280;21982;49.804;24.072;2023-02-20T05:24:43;97164.03;;;0.63;68.24
35878;BME280;21982;49.804;24.072;2023-02-20T05:27:10;97176.13;;;0.74;68.32
35878;BME280;21982;49.804;24.072;2023-02-20T05:29:35;97171.88;;;0.73;68.42
35878;BME280;21982;49.804;24.072;2023-02-20T05:32:01;97221.81;;;1.08;67.86
35878;BME280;21982;49.804;24.072;2023-02-20T05:34:26;97206.59;;;1.04;68.05
35878;BME280;21982;49.804;24.072;2023-02-20T05:36:52;97176.44;;;0.80;67.60
35878;BME280;21982;49.804;24.072;2023-02-20T05:39:18;97213.75;;;1.11;67.55
35878;BME280;21982;49.804;24.072;2023-02-20T05:41:44;97197.66;;;1.06;67.99
35878;BME280;21982;49.804;24.072;2023-02-20T05:44:09;97237.00;;;1.24;67.50
35878;BME280;21982;49.804;24.072;2023-02-20T05:46:39;97135.63;;;0.70;67.95
35878;BME280;21982;49.804;24.072;2023-02-20T05:49:05;97062.00;;;0.07;67.69
35878;BME280;21982;49.804;24.072;2023-02-20T05:51:31;97229.13;;;1.14;67.85
35878;BME280;21982;49.804;24.072;2023-02-20T05:53:56;97235.88;;;1.17;67.64
35878;BME280;21982;49.804;24.072;2023-02-20T05:56:22;97217.13;;;0.92;67.83
35878;BME280;21982;49.804;24.072;2023-02-20T05:58:47;97254.25;;;1.15;67.82
35878;BME280;21982;49.804;24.072;2023-02-20T06:01:20;97252.22;;;1.19;67.28
35878;BME280;21982;49.804;24.072;2023-02-20T06:03:46;97248.44;;;1.02;67.79
35878;BME280;21982;49.804;24.072;2023-02-20T06:06:13;97074.06;;;0.08;67.33
35878;BME280;21982;49.804;24.072;2023-02-20T06:08:39;97225.75;;;0.93;67.47
35878;BME280;21982;49.804;24.072;2023-02-20T06:11:06;97269.47;;;1.10;67.38
35878;BME280;21982;49.804;24.072;2023-02-20T06:13:31;97243.06;;;0.94;67.69
35878;BME280;21982;49.804;24.072;2023-02-20T06:15:57;97240.19;;;0.97;67.74
35878;BME280;21982;49.804;24.072;2023-02-20T06:18:22;97286.63;;;1.13;67.80
35878;BME280;21982;49.804;24.072;2023-02-20T06:20:47;97254.63;;;1.01;67.39
35878;BME280;21982;49.804;24.072;2023-02-20T06:23:13;97273.34;;;1.16;67.63
35878;BME280;21982;49.804;24.072;2023-02-20T06:25:38;97214.84;;;0.78;67.58
35878;BME280;21982;49.804;24.072;2023-02-20T06:28:03;97244.59;;;1.06;67.22
35878;BME280;21982;49.804;24.072;2023-02-20T06:30:29;97220.19;;;1.07;67.14
35878;BME280;21982;49.804;24.072;2023-02-20T06:32:54;97285.16;;;1.50;66.68
35878;BME280;21982;49.804;24.072;2023-02-20T06:35:20;97261.94;;;1.47;67.42
35878;BME280;21982;49.804;24.072;2023-02-20T06:37:45;97245.56;;;1.36;67.11
35878;BME280;21982;49.804;24.072;2023-02-20T06:40:11;97183.09;;;0.94;66.91
35878;BME280;21982;49.804;24.072;2023-02-20T06:42:36;97322.59;;;1.70;66.66
35878;BME280;21982;49.804;24.072;2023-02-20T06:45:02;97263.19;;;1.53;67.04
35878;BME280;21982;49.804;24.072;2023-02-20T06:47:28;97313.50;;;1.74;66.84
35878;BME280;21982;49.804;24.072;2023-02-20T06:49:53;97166.31;;;0.87;66.61
35878;BME280;21982;49.804;24.072;2023-02-20T06:52:19;97295.94;;;1.76;66.56
35878;BME280;21982;49.804;24.072;2023-02-20T06:54:44;97322.91;;;1.86;66.61
35878;BME280;21982;49.804;24.072;2023-02-20T06:57:09;97324.03;;;1.93;66.42
35878;BME280;21982;49.804;24.072;2023-02-20T06:59:35;97328.72;;;1.99;66.02
35878;BME280;21982;49.804;24.072;2023-02-20T07:02:06;97231.13;;;1.31;66.43
35878;BME280;21982;49.804;24.072;2023-02-20T07:04:31;97328.72;;;2.09;65.93
35878;BME280;21982;49.804;24.072;2023-02-20T07:06:57;97187.56;;;1.22;66.09
35878;BME280;21982;49.804;24.072;2023-02-20T07:09:23;97332.44;;;2.16;65.66
35878;BME280;21982;49.804;24.072;2023-02-20T07:11:51;97249.78;;;1.67;65.93
35878;BME280;21982;49.804;24.072;2023-02-20T07:14:16;97332.31;;;2.18;65.84
35878;BME280;21982;49.804;24.072;2023-02-20T07:16:42;97329.56;;;2.19;65.84
35878;BME280;21982;49.804;24.072;2023-02-20T07:19:07;97306.03;;;2.10;65.91
35878;BME280;21982;49.804;24.072;2023-02-20T07:21:32;97334.81;;;2.29;65.21
35878;BME280;21982;49.804;24.072;2023-02-20T07:23:58;97315.84;;;2.37;65.18
35878;BME280;21982;49.804;24.072;2023-02-20T07:26:26;97278.94;;;2.11;65.07
35878;BME280;21982;49.804;24.072;2023-02-20T07:28:52;97285.28;;;2.08;64.91
35878;BME280;21982;49.804;24.072;2023-02-20T07:31:18;97332.34;;;2.47;64.98
35878;BME280;21982;49.804;24.072;2023-02-20T07:33:44;97210.47;;;1.78;65.00
35878;BME280;21982;49.804;24.072;2023-02-20T07:36:10;97184.09;;;1.62;64.23
35878;BME280;21982;49.804;24.072;2023-02-20T07:38:36;97278.44;;;2.26;64.63
35878;BME280;21982;49.804;24.072;2023-02-20T07:41:02;97299.47;;;2.44;64.73
35878;BME280;21982;49.804;24.072;2023-02-20T07:43:28;97283.91;;;2.43;64.26
35878;BME280;21982;49.804;24.072;2023-02-20T07:45:53;97342.00;;;2.75;64.34
35878;BME280;21982;49.804;24.072;2023-02-20T07:48:18;97254.50;;;2.31;63.93
35878;BME280;21982;49.804;24.072;2023-02-20T07:50:44;97170.38;;;1.98;63.78
35878;BME280;21982;49.804;24.072;2023-02-20T07:53:13;97310.19;;;2.80;63.61
35878;BME280;21982;49.804;24.072;2023-02-20T07:55:39;97337.00;;;3.01;63.64
35878;BME280;21982;49.804;24.072;2023-02-20T07:58:06;97284.19;;;2.68;63.53
35878;BME280;21982;49.804;24.072;2023-02-20T08:00:32;97337.84;;;3.01;63.59
35878;BME280;21982;49.804;24.072;2023-02-20T08:02:58;97231.25;;;2.47;63.09
35878;BME280;21982;49.804;24.072;2023-02-20T08:05:24;97253.38;;;2.62;63.11
35878;BME280;21982;49.804;24.072;2023-02-20T08:07:50;97334.19;;;3.31;62.69
35878;BME280;21982;49.804;24.072;2023-02-20T08:10:19;97262.69;;;2.94;62.02
35878;BME280;21982;49.804;24.072;2023-02-20T08:12:46;97328.09;;;3.41;62.34
35878;BME280;21982;49.804;24.072;2023-02-20T08:15:12;97336.66;;;3.43;61.83
35878;BME280;21982;49.804;24.072;2023-02-20T08:17:38;97304.72;;;3.29;61.29
35878;BME280;21982;49.804;24.072;2023-02-20T08:20:04;97329.16;;;3.48;61.55
35878;BME280;21982;49.804;24.072;2023-02-20T08:22:30;97295.31;;;3.46;61.41
35878;BME280;21982;49.804;24.072;2023-02-20T08:24:56;97327.31;;;3.67;61.46
35878;BME280;21982;49.804;24.072;2023-02-20T08:27:21;97249.88;;;3.38;61.13
35878;BME280;21982;49.804;24.072;2023-02-20T08:29:46;97296.72;;;3.68;60.42
35878;BME280;21982;49.804;24.072;2023-02-20T08:32:12;97281.97;;;3.67;60.17
35878;BME280;21982;49.804;24.072;2023-02-20T08:34:37;97309.69;;;3.87;60.80
35878;BME280;21982;49.804;24.072;2023-02-20T08:37:04;97284.28;;;3.97;60.34
35878;BME280;21982;49.804;24.072;2023-02-20T08:39:30;97295.25;;;4.11;60.20
35878;BME280;21982;49.804;24.072;2023-02-20T08:41:55;97169.16;;;3.33;59.11
35878;BME280;21982;49.804;24.072;2023-02-20T08:44:23;97293.00;;;4.16;58.78
35878;BME280;21982;49.804;24.072;2023-02-20T08:46:50;97296.78;;;4.03;58.63
35878;BME280;21982;49.804;24.072;2023-02-20T08:49:18;97251.38;;;3.85;58.86
35878;BME280;21982;49.804;24.072;2023-02-20T08:51:45;97265.56;;;3.92;58.58
35878;BME280;21982;49.804;24.072;2023-02-20T08:54:11;97238.91;;;3.79;58.68
35878;BME280;21982;49.804;24.072;2023-02-20T08:56:37;97280.53;;;4.00;58.00
35878;BME280;21982;49.804;24.072;2023-02-20T08:59:03;97243.63;;;3.93;57.76
35878;BME280;21982;49.804;24.072;2023-02-20T09:01:28;97154.97;;;3.53;57.85
35878;BME280;21982;49.804;24.072;2023-02-20T09:03:58;97205.75;;;3.88;57.60
35878;BME280;21982;49.804;24.072;2023-02-20T09:06:27;97247.91;;;4.12;57.38
35878;BME280;21982;49.804;24.072;2023-02-20T09:08:53;97266.41;;;4.28;57.31
35878;BME280;21982;49.804;24.072;2023-02-20T09:11:19;97198.19;;;4.02;57.28
35878;BME280;21982;49.804;24.072;2023-02-20T09:13:51;97257.16;;;4.60;57.06
35878;BME280;21982;49.804;24.072;2023-02-20T09:16:21;97253.44;;;4.62;56.92
35878;BME280;21982;49.804;24.072;2023-02-20T09:18:50;97097.03;;;3.66;56.86
35878;BME280;21982;49.804;24.072;2023-02-20T09:21:18;97239.25;;;4.55;56.48
35878;BME280;21982;49.804;24.072;2023-02-20T09:23:43;97234.47;;;4.51;56.32
35878;BME280;21982;49.804;24.072;2023-02-20T09:26:09;97254.59;;;4.42;56.46
35878;BME280;21982;49.804;24.072;2023-02-20T09:28:35;97164.50;;;3.90;56.53
35878;BME280;21982;49.804;24.072;2023-02-20T09:31:00;97135.78;;;3.80;56.35
35878;BME280;21982;49.804;24.072;2023-02-20T09:33:26;97151.94;;;3.93;55.66
35878;BME280;21982;49.804;24.072;2023-02-20T09:35:52;97210.97;;;4.23;56.13
35878;BME280;21982;49.804;24.072;2023-02-20T09:38:19;97168.34;;;4.13;55.76
35878;BME280;21982;49.804;24.072;2023-02-20T09:40:48;97138.38;;;3.98;56.10
35878;BME280;21982;49.804;24.072;2023-02-20T09:46:19;97216.84;;;4.79;55.20
35878;BME280;21982;49.804;24.072;2023-02-20T09:48:57;97198.25;;;4.72;55.06
35878;BME280;21982;49.804;24.072;2023-02-20T09:51:49;97114.47;;;4.19;55.01
35878;BME280;21982;49.804;24.072;2023-02-20T09:54:30;97179.44;;;4.77;54.39
35878;BME280;21982;49.804;24.072;2023-02-20T09:57:00;97204.84;;;5.02;54.57
35878;BME280;21982;49.804;24.072;2023-02-20T10:00:03;97195.47;;;4.99;53.92
35878;BME280;21982;49.804;24.072;2023-02-20T10:02:35;97175.22;;;5.18;53.86
35878;BME280;21982;49.804;24.072;2023-02-20T10:05:06;97183.94;;;5.18;52.99
35878;BME280;21982;49.804;24.072;2023-02-20T10:07:38;97175.53;;;5.15;53.31
35878;BME280;21982;49.804;24.072;2023-02-20T10:10:22;97068.66;;;4.57;53.19
35878;BME280;21982;49.804;24.072;2023-02-20T10:18:45;97135.19;;;5.74;51.99
35878;BME280;21982;49.804;24.072;2023-02-20T10:23:53;97161.38;;;6.32;51.14
35878;BME280;21982;49.804;24.072;2023-02-20T10:26:26;97143.06;;;6.71;50.75
35878;BME280;21982;49.804;24.072;2023-02-20T10:28:55;97100.88;;;7.35;50.60
35878;BME280;21982;49.804;24.072;2023-02-20T10:31:37;97129.84;;;7.66;49.28
35878;BME280;21982;49.804;24.072;2023-02-20T10:34:12;97062.09;;;7.52;49.34
35878;BME280;21982;49.804;24.072;2023-02-20T10:36:47;97117.88;;;7.86;48.53
35878;BME280;21982;49.804;24.072;2023-02-20T10:39:16;97024.31;;;7.36;48.47
35878;BME280;21982;49.804;24.072;2023-02-20T10:46:57;97080.91;;;8.84;47.12
35878;BME280;21982;49.804;24.072;2023-02-20T10:52:16;97076.97;;;9.46;46.64
35878;BME280;21982;49.804;24.072;2023-02-20T10:54:47;96996.53;;;9.12;45.18
35878;BME280;21982;49.804;24.072;2023-02-20T10:57:27;97025.56;;;9.48;45.11
35878;BME280;21982;49.804;24.072;2023-02-20T11:00:09;97032.69;;;9.90;44.27
35878;BME280;21982;49.804;24.072;2023-02-20T11:02:46;97023.94;;;10.18;43.33
35878;BME280;21982;49.804;24.072;2023-02-20T11:05:21;97048.50;;;10.61;42.74
35878;BME280;21982;49.804;24.072;2023-02-20T11:07:50;96956.69;;;10.27;42.30
35878;BME280;21982;49.804;24.072;2023-02-20T11:10:15;97041.66;;;10.73;41.50
35878;BME280;21982;49.804;24.072;2023-02-20T11:12:49;97040.75;;;10.94;42.04
35878;BME280;21982;49.804;24.072;2023-02-20T11:15:18;97001.16;;;10.86;41.00
35878;BME280;21982;49.804;24.072;2023-02-20T11:17:45;96896.31;;;10.16;40.95
35878;BME280;21982;49.804;24.072;2023-02-20T11:20:43;97031.78;;;10.95;40.86
35878;BME280;21982;49.804;24.072;2023-02-20T11:26:53;96853.84;;;9.55;41.16
35878;BME280;21982;49.804;24.072;2023-02-20T11:29:12;96968.25;;;9.70;41.00
35878;BME280;21982;49.804;24.072;2023-02-20T11:31:42;96909.47;;;8.68;41.69
35878;BME280;21982;49.804;24.072;2023-02-20T11:34:18;96856.09;;;7.86;42.37
35878;BME280;21982;49.804;24.072;2023-02-20T11:36:48;96963.94;;;8.25;42.57
35878;BME280;21982;49.804;24.072;2023-02-20T11:39:24;96973.22;;;8.50;43.32
35878;BME280;21982;49.804;24.072;2023-02-20T11:42:16;96934.03;;;8.83;43.38
35878;BME280;21982;49.804;24.072;2023-02-20T11:44:43;96813.75;;;8.38;42.92
35878;BME280;21982;49.804;24.072;2023-02-20T11:47:26;96956.13;;;9.33;42.00
35878;BME280;21982;49.804;24.072;2023-02-20T11:50:44;96721.63;;;7.20;43.05
35878;BME280;21982;49.804;24.072;2023-02-20T11:53:25;96949.13;;;8.53;42.85
35878;BME280;21982;49.804;24.072;2023-02-20T11:56:10;96938.09;;;8.50;42.85
35878;BME280;21982;49.804;24.072;2023-02-20T11:58:37;96930.47;;;8.40;42.92
35878;BME280;21982;49.804;24.072;2023-02-20T12:01:04;96926.75;;;8.34;43.06
35878;BME280;21982;49.804;24.072;2023-02-20T12:03:32;96673.56;;;6.74;43.02
35878;BME280;21982;49.804;24.072;2023-02-20T12:09:06;96892.50;;;8.56;42.52
35878;BME280;21982;49.804;24.072;2023-02-20T12:11:36;96878.13;;;8.58;42.72
35878;BME280;21982;49.804;24.072;2023-02-20T12:14:01;96804.97;;;8.01;42.83
35878;BME280;21982;49.804;24.072;2023-02-20T12:19:46;96761.22;;;7.56;43.09
35878;BME280;21982;49.804;24.072;2023-02-20T12:33:43;96844.34;;;7.59;40.91
35878;BME280;21982;49.804;24.072;2023-02-20T12:42:20;96808.34;;;7.66;41.75
35878;BME280;21982;49.804;24.072;2023-02-20T12:50:58;96795.25;;;8.02;41.85
35878;BME280;21982;49.804;24.072;2023-02-20T12:56:26;96757.28;;;7.67;42.73
35878;BME280;21982;49.804;24.072;2023-02-20T13:00:17;96761.22;;;7.56;42.47
35878;BME280;21982;49.804;24.072;2023-02-20T13:02:32;96775.66;;;7.46;42.62
35878;BME280;21982;49.804;24.072;2023-02-20T13:05:00;96760.94;;;7.36;43.47
35878;BME280;21982;49.804;24.072;2023-02-20T13:07:34;96723.13;;;7.00;43.44
35878;BME280;21982;49.804;24.072;2023-02-20T13:10:14;96767.69;;;7.01;44.17
35878;BME280;21982;49.804;24.072;2023-02-20T13:12:40;96760.25;;;6.90;44.55
35878;BME280;21982;49.804;24.072;2023-02-20T13:15:29;96765.69;;;6.89;45.00
35878;BME280;21982;49.804;24.072;2023-02-20T13:20:48;96678.97;;;5.89;46.49
35878;BME280;21982;49.804;24.072;2023-02-20T13:25:54;96738.66;;;5.72;47.92
35878;BME280;21982;49.804;24.072;2023-02-20T13:31:13;96767.06;;;5.77;49.10
35878;BME280;21982;49.804;24.072;2023-02-20T13:33:45;96639.75;;;4.79;50.48
35878;BME280;21982;49.804;24.072;2023-02-20T13:42:00;96604.63;;;4.24;52.49
35878;BME280;21982;49.804;24.072;2023-02-20T13:57:56;96545.72;;;3.55;57.59
35878;BME280;21982;49.804;24.072;2023-02-20T14:03:24;96671.44;;;4.53;58.02
35878;BME280;21982;49.804;24.072;2023-02-20T14:06:10;96672.94;;;4.39;58.71
35878;BME280;21982;49.804;24.072;2023-02-20T14:08:36;96665.38;;;4.20;57.76
35878;BME280;21982;49.804;24.072;2023-02-20T14:11:04;96638.69;;;4.41;59.78
35878;BME280;21982;49.804;24.072;2023-02-20T14:13:30;96640.78;;;4.53;59.09
35878;BME280;21982;49.804;24.072;2023-02-20T14:16:04;96547.31;;;4.21;59.25
35878;BME280;21982;49.804;24.072;2023-02-20T14:18:47;96455.72;;;3.56;59.78
35878;BME280;21982;49.804;24.072;2023-02-20T14:21:21;96545.06;;;4.10;60.02
35878;BME280;21982;49.804;24.072;2023-02-20T14:23:49;96486.66;;;3.77;60.47
35878;BME280;21982;49.804;24.072;2023-02-20T14:26:29;96490.25;;;3.76;59.84
35878;BME280;21982;49.804;24.072;2023-02-20T14:28:55;96608.00;;;4.57;60.58
35878;BME280;21982;49.804;24.072;2023-02-20T14:33:54;96563.50;;;4.41;60.87
35878;BME280;21982;49.804;24.072;2023-02-20T14:39:21;96590.03;;;4.38;60.36
35878;BME280;21982;49.804;24.072;2023-02-20T14:41:54;96555.81;;;4.23;60.55
35878;BME280;21982;49.804;24.072;2023-02-20T14:44:20;96350.00;;;3.02;61.01
35878;BME280;21982;49.804;24.072;2023-02-20T14:46:46;96580.03;;;4.50;61.61
35878;BME280;21982;49.804;24.072;2023-02-20T14:49:23;96529.94;;;4.20;61.66
35878;BME280;21982;49.804;24.072;2023-02-20T14:51:49;96424.66;;;3.53;62.20
35878;BME280;21982;49.804;24.072;2023-02-20T14:54:24;96542.69;;;4.40;62.35
35878;BME280;21982;49.804;24.072;2023-02-20T14:56:50;96517.81;;;4.19;62.43
35878;BME280;21982;49.804;24.072;2023-02-20T14:59:32;96518.31;;;4.23;62.28
35878;BME280;21982;49.804;24.072;2023-02-20T15:02:21;96476.44;;;4.07;62.96
35878;BME280;21982;49.804;24.072;2023-02-20T15:04:52;96431.84;;;3.76;62.54
35878;BME280;21982;49.804;24.072;2023-02-20T15:07:23;96519.63;;;4.27;62.73
35878;BME280;21982;49.804;24.072;2023-02-20T15:09:52;96459.44;;;4.02;62.53
35878;BME280;21982;49.804;24.072;2023-02-20T15:12:28;96560.13;;;4.63;62.21
35878;BME280;21982;49.804;24.072;2023-02-20T15:17:31;96491.78;;;4.65;62.67
35878;BME280;21982;49.804;24.072;2023-02-20T15:19:58;96500.78;;;4.70;62.08
35878;BME280;21982;49.804;24.072;2023-02-20T15:22:33;96479.13;;;4.77;62.25